createdAt,value
2019-02-05T00:00:33.752Z,93.20
2019-02-05T00:03:02.119Z,92.90
2019-02-05T00:05:30.368Z,93.00
2019-02-05T00:07:58.666Z,93.70
2019-02-05T00:10:27.267Z,92.80
2019-02-05T00:12:55.574Z,93.50
2019-02-05T00:15:23.801Z,93.10
2019-02-05T00:17:53.812Z,92.70
2019-02-05T00:20:22.036Z,92.50
2019-02-05T00:22:50.278Z,92.20
2019-02-05T00:25:18.507Z,92.20
2019-02-05T00:27:47.299Z,92.10
2019-02-05T00:30:16.377Z,91.80
2019-02-05T00:32:45.004Z,91.90
2019-02-05T00:35:13.448Z,91.80
2019-02-05T00:37:41.678Z,92.00
2019-02-05T00:40:12.409Z,92.20
2019-02-05T00:42:40.620Z,92.40
2019-02-05T00:45:13.987Z,92.10
2019-02-05T00:47:42.675Z,92.10
2019-02-05T00:50:12.930Z,92.20
2019-02-05T00:52:41.453Z,92.60
2019-02-05T00:55:27.108Z,92.60
2019-02-05T00:57:55.466Z,93.10
2019-02-05T01:00:29.903Z,92.90
2019-02-05T01:02:58.183Z,93.30
2019-02-05T01:05:26.487Z,94.10
2019-02-05T01:07:54.706Z,94.50
2019-02-05T01:10:25.608Z,94.60
2019-02-05T01:12:54.228Z,94.60
2019-02-05T01:15:23.626Z,94.60
2019-02-05T01:17:51.862Z,95.20
2019-02-05T01:20:21.447Z,95.50
2019-02-05T01:22:50.125Z,95.90
2019-02-05T01:25:19.506Z,95.90
2019-02-05T01:27:48.121Z,96.00
2019-02-05T01:30:40.772Z,96.20
2019-02-05T01:33:09.004Z,96.30
2019-02-05T01:35:37.218Z,96.40
2019-02-05T01:38:05.920Z,96.40
2019-02-05T01:40:34.150Z,96.10
2019-02-05T01:43:02.365Z,96.80
2019-02-05T01:45:30.611Z,96.40
2019-02-05T01:47:58.863Z,96.70
2019-02-05T01:50:27.871Z,96.40
2019-02-05T01:52:56.102Z,96.70
2019-02-05T01:55:24.530Z,96.70
2019-02-05T01:57:52.778Z,97.10
2019-02-05T02:00:26.829Z,96.90
2019-02-05T02:02:55.070Z,96.80
2019-02-05T02:05:23.370Z,97.20
2019-02-05T02:07:51.854Z,97.30
2019-02-05T02:10:23.024Z,97.30
2019-02-05T02:12:51.587Z,97.60
2019-02-05T02:15:19.822Z,97.50
2019-02-05T02:17:48.054Z,97.70
2019-02-05T02:20:17.937Z,97.50
2019-02-05T02:22:46.640Z,97.60
2019-02-05T02:25:15.415Z,97.60
2019-02-05T02:27:43.711Z,97.50
2019-02-05T02:30:20.436Z,97.60
2019-02-05T02:32:48.719Z,97.60
2019-02-05T02:35:16.933Z,98.00
2019-02-05T02:37:45.548Z,97.80
2019-02-05T02:40:14.062Z,97.90
2019-02-05T02:42:42.286Z,98.00
2019-02-05T02:45:15.156Z,98.30
2019-02-05T02:47:43.404Z,98.30
2019-02-05T02:50:17.130Z,98.50
2019-02-05T02:52:45.771Z,98.30
2019-02-05T02:55:14.054Z,98.40
2019-02-05T02:57:42.739Z,98.20
2019-02-05T03:00:13.716Z,98.20
2019-02-05T03:02:42.064Z,98.30
2019-02-05T03:05:17.228Z,98.20
2019-02-05T03:07:45.918Z,97.90
2019-02-05T03:10:26.798Z,98.10
2019-02-05T03:12:55.539Z,98.20
2019-02-05T03:15:23.880Z,98.60
2019-02-05T03:17:52.177Z,98.00
2019-02-05T03:20:20.548Z,98.20
2019-02-05T03:22:48.924Z,98.40
2019-02-05T03:25:20.496Z,98.00
2019-02-05T03:27:48.794Z,98.10
2019-02-05T03:30:20.360Z,98.30
2019-02-05T03:32:48.801Z,98.10
2019-02-05T03:35:18.078Z,98.40
2019-02-05T03:37:46.315Z,98.90
2019-02-05T03:40:26.867Z,98.80
2019-02-05T03:42:55.152Z,98.80
2019-02-05T03:45:24.201Z,98.60
2019-02-05T03:47:53.276Z,98.80
2019-02-05T03:50:21.555Z,99.00
2019-02-05T03:52:53.033Z,99.00
2019-02-05T03:55:51.589Z,98.80
2019-02-05T03:58:26.155Z,98.80
2019-02-05T04:01:00.496Z,99.10
2019-02-05T04:03:40.965Z,98.90
2019-02-05T04:06:30.515Z,99.00
2019-02-05T04:09:07.741Z,99.00
2019-02-05T04:11:54.695Z,99.10
2019-02-05T04:14:31.797Z,99.20
2019-02-05T04:17:24.132Z,99.30
2019-02-05T04:20:13.789Z,99.20
2019-02-05T04:22:51.556Z,99.30
2019-02-05T04:25:23.142Z,99.30
2019-02-05T04:28:13.043Z,99.30
2019-02-05T04:30:53.699Z,99.40
2019-02-05T04:33:31.459Z,99.70
2019-02-05T04:36:08.571Z,99.60
2019-02-05T04:38:45.974Z,99.60
2019-02-05T04:41:32.335Z,99.50
2019-02-05T04:44:14.886Z,99.40
2019-02-05T04:47:21.090Z,99.40
2019-02-05T04:49:58.740Z,99.60
2019-02-05T04:52:35.813Z,99.50
2019-02-05T04:55:09.717Z,98.80
2019-02-05T04:57:57.342Z,99.00
2019-02-05T05:00:37.602Z,99.00
2019-02-05T05:03:09.126Z,98.50
2019-02-05T05:05:43.443Z,98.80
2019-02-05T05:08:27.218Z,98.40
2019-02-05T05:10:55.571Z,99.00
2019-02-05T05:13:24.037Z,98.30
2019-02-05T05:15:52.462Z,98.40
2019-02-05T05:18:20.746Z,98.60
2019-02-05T05:20:49.039Z,98.50
2019-02-05T05:23:17.339Z,98.30
2019-02-05T05:25:45.630Z,98.50
2019-02-05T05:28:13.957Z,98.30
2019-02-05T05:30:42.259Z,98.30
2019-02-05T05:33:11.169Z,98.30
2019-02-05T05:35:44.250Z,98.80
2019-02-05T05:38:09.855Z,98.80
2019-02-05T05:40:38.182Z,98.60
2019-02-05T05:43:06.449Z,98.60
2019-02-05T05:45:34.808Z,98.70
2019-02-05T05:48:03.240Z,98.80
2019-02-05T05:50:31.842Z,98.50
2019-02-05T05:53:00.265Z,98.50
2019-02-05T05:55:28.677Z,98.60
2019-02-05T05:57:56.959Z,98.20
2019-02-05T06:00:25.342Z,98.30
2019-02-05T06:02:53.640Z,98.40
2019-02-05T06:05:22.120Z,98.50
2019-02-05T06:07:50.895Z,98.50
2019-02-05T06:10:19.164Z,98.80
2019-02-05T06:12:47.442Z,98.60
2019-02-05T06:15:16.557Z,98.60
2019-02-05T06:17:44.807Z,98.40
2019-02-05T06:20:18.370Z,98.50
2019-02-05T06:22:46.711Z,98.30
2019-02-05T06:25:15.175Z,98.40
2019-02-05T06:27:43.643Z,98.10
2019-02-05T06:30:16.630Z,98.60
2019-02-05T06:32:45.100Z,98.70
2019-02-05T06:35:13.435Z,98.40
2019-02-05T06:37:41.834Z,98.60
2019-02-05T06:40:19.285Z,98.80
2019-02-05T06:42:48.558Z,98.40
2019-02-05T06:45:16.981Z,98.10
2019-02-05T06:47:45.212Z,98.20
2019-02-05T06:50:14.100Z,98.60
2019-02-05T06:52:42.376Z,98.40
2019-02-05T06:55:14.296Z,98.60
2019-02-05T06:57:42.566Z,98.70
2019-02-05T07:00:19.512Z,98.70
2019-02-05T07:02:47.819Z,98.40
2019-02-05T07:05:25.809Z,98.40
2019-02-05T07:07:56.262Z,98.40
2019-02-05T07:10:26.263Z,98.60
2019-02-05T07:12:54.520Z,98.50
2019-02-05T07:15:22.751Z,98.40
2019-02-05T07:17:50.990Z,98.10
2019-02-05T07:20:19.466Z,98.50
2019-02-05T07:22:47.714Z,98.50
2019-02-05T07:25:20.475Z,98.40
2019-02-05T07:27:51.027Z,98.40
2019-02-05T07:30:26.230Z,98.70
2019-02-05T07:32:54.577Z,98.50
2019-02-05T07:35:26.455Z,98.50
2019-02-05T07:37:55.108Z,98.60
2019-02-05T07:40:23.902Z,98.20
2019-02-05T07:42:52.217Z,98.30
2019-02-05T07:45:24.522Z,98.50
2019-02-05T07:47:52.797Z,98.40
2019-02-05T07:50:26.457Z,98.50
2019-02-05T07:52:54.878Z,98.60
2019-02-05T07:55:23.709Z,98.60
2019-02-05T07:57:53.116Z,98.50
2019-02-05T08:00:30.540Z,98.70
2019-02-05T08:02:59.876Z,97.90
2019-02-05T08:05:34.986Z,98.30
2019-02-05T08:08:05.046Z,98.20
2019-02-05T08:10:35.618Z,98.10
2019-02-05T08:13:04.213Z,97.30
2019-02-05T08:15:35.827Z,97.10
2019-02-05T08:18:04.762Z,96.90
2019-02-05T08:20:33.066Z,97.60
2019-02-05T08:23:01.286Z,96.70
2019-02-05T08:25:29.815Z,96.80
2019-02-05T08:27:58.393Z,96.90
2019-02-05T08:30:33.048Z,96.60
2019-02-05T08:33:01.917Z,96.60
2019-02-05T08:35:30.237Z,96.80
2019-02-05T08:37:58.474Z,96.70
2019-02-05T08:40:26.841Z,96.30
2019-02-05T08:42:55.133Z,96.40
2019-02-05T08:45:29.106Z,96.40
2019-02-05T08:47:57.410Z,96.90
2019-02-05T08:50:27.770Z,96.30
2019-02-05T08:52:56.092Z,95.80
2019-02-05T08:55:24.373Z,95.90
2019-02-05T08:57:58.484Z,96.20
2019-02-05T09:00:33.128Z,96.30
2019-02-05T09:03:01.404Z,96.50
2019-02-05T09:05:29.736Z,96.20
2019-02-05T09:07:58.222Z,96.20
2019-02-05T09:10:30.150Z,96.40
2019-02-05T09:12:58.409Z,96.00
2019-02-05T09:15:29.670Z,96.30
2019-02-05T09:17:57.966Z,96.40
2019-02-05T09:20:26.394Z,96.00
2019-02-05T09:22:54.848Z,96.30
2019-02-05T09:25:23.133Z,95.60
2019-02-05T09:27:51.408Z,96.10
2019-02-05T09:30:23.419Z,96.10
2019-02-05T09:32:54.288Z,96.30
2019-02-05T09:35:22.611Z,96.00
2019-02-05T09:37:51.076Z,96.30
2019-02-05T09:40:22.635Z,95.80
2019-02-05T09:42:51.035Z,95.90
2019-02-05T09:45:19.576Z,95.80
2019-02-05T09:47:47.879Z,96.40
2019-02-05T09:50:17.312Z,96.00
2019-02-05T09:52:45.699Z,96.20
2019-02-05T09:55:16.694Z,95.80
2019-02-05T09:57:44.997Z,95.70
2019-02-05T10:00:21.899Z,95.90
2019-02-05T10:02:50.225Z,95.60
2019-02-05T10:05:21.489Z,95.90
2019-02-05T10:07:49.917Z,95.80
2019-02-05T10:10:20.037Z,95.80
2019-02-05T10:12:48.272Z,95.60
2019-02-05T10:15:22.238Z,96.20
2019-02-05T10:17:50.665Z,96.20
2019-02-05T10:20:19.373Z,95.80
2019-02-05T10:22:48.875Z,95.70
2019-02-05T10:25:17.684Z,95.70
2019-02-05T10:27:46.006Z,95.60
2019-02-05T10:30:31.912Z,95.50
2019-02-05T10:33:01.878Z,95.70
2019-02-05T10:35:30.176Z,95.40
2019-02-05T10:37:58.474Z,95.90
2019-02-05T10:40:27.039Z,95.30
2019-02-05T10:42:55.354Z,95.20
2019-02-05T10:45:26.139Z,95.30
2019-02-05T10:47:54.593Z,95.20
2019-02-05T10:50:23.355Z,95.00
2019-02-05T10:52:51.587Z,95.20
2019-02-05T10:55:21.551Z,95.20
2019-02-05T10:57:51.946Z,95.10
2019-02-05T11:00:33.622Z,95.00
2019-02-05T11:03:04.743Z,94.80
2019-02-05T11:05:33.033Z,95.00
2019-02-05T11:08:01.342Z,94.80
2019-02-05T11:10:29.626Z,95.50
2019-02-05T11:12:58.057Z,95.70
2019-02-05T11:15:30.850Z,95.50
2019-02-05T11:17:59.221Z,95.00
2019-02-05T11:20:28.382Z,95.20
2019-02-05T11:22:56.774Z,95.30
2019-02-05T11:25:25.073Z,94.80
2019-02-05T11:27:53.407Z,95.20
2019-02-05T11:30:26.888Z,95.20
2019-02-05T11:32:55.198Z,95.20
2019-02-05T11:35:23.507Z,95.20
2019-02-05T11:37:52.352Z,95.20
2019-02-05T11:40:26.636Z,95.10
2019-02-05T11:42:56.509Z,95.20
2019-02-05T11:45:24.817Z,95.00
2019-02-05T11:47:53.138Z,94.80
2019-02-05T11:50:23.072Z,95.10
2019-02-05T11:52:51.777Z,94.90
2019-02-05T11:55:23.089Z,94.30
2019-02-05T11:57:51.450Z,95.10
2019-02-05T12:00:32.054Z,94.50
2019-02-05T12:02:52.915Z,94.40
2019-02-05T12:05:21.236Z,94.30
2019-02-05T12:07:49.708Z,94.10
2019-02-05T12:10:18.427Z,94.20
2019-02-05T12:12:46.930Z,94.40
2019-02-05T12:15:16.477Z,94.00
2019-02-05T12:17:44.727Z,94.00
2019-02-05T12:20:17.470Z,94.00
2019-02-05T12:22:45.942Z,93.80
2019-02-05T12:25:24.906Z,93.90
2019-02-05T12:27:53.214Z,93.90
2019-02-05T12:30:24.713Z,94.00
2019-02-05T12:32:53.178Z,94.10
2019-02-05T12:35:21.516Z,93.80
2019-02-05T12:37:49.839Z,93.90
2019-02-05T12:40:19.203Z,93.70
2019-02-05T12:42:47.430Z,93.80
2019-02-05T12:45:19.295Z,94.00
2019-02-05T12:47:47.519Z,93.90
2019-02-05T12:50:30.260Z,93.80
2019-02-05T12:53:17.946Z,93.50
2019-02-05T12:55:46.429Z,93.70
2019-02-05T12:58:14.656Z,93.40
2019-02-05T13:00:56.700Z,93.50
2019-02-05T13:03:18.793Z,93.50
2019-02-05T13:05:47.141Z,93.40
2019-02-05T13:08:15.366Z,93.20
2019-02-05T13:10:49.914Z,93.30
2019-02-05T13:13:18.493Z,93.20
2019-02-05T13:15:46.937Z,93.60
2019-02-05T13:18:15.640Z,92.90
2019-02-05T13:20:43.924Z,92.90
2019-02-05T13:23:12.402Z,92.80
2019-02-05T13:25:40.803Z,93.00
2019-02-05T13:28:09.976Z,93.10
2019-02-05T13:30:38.339Z,92.50
2019-02-05T13:33:08.578Z,92.30
2019-02-05T13:35:36.899Z,92.10
2019-02-05T13:38:05.263Z,92.20
2019-02-05T13:40:33.636Z,92.40
2019-02-05T13:43:02.034Z,92.40
2019-02-05T13:45:32.573Z,92.10
2019-02-05T13:48:02.287Z,92.30
2019-02-05T13:50:33.654Z,92.40
2019-02-05T13:53:02.532Z,91.90
2019-02-05T13:55:32.995Z,92.10
2019-02-05T13:58:01.227Z,92.30
2019-02-05T14:00:41.500Z,92.50
2019-02-05T14:03:10.597Z,91.90
2019-02-05T14:05:39.169Z,91.90
2019-02-05T14:08:07.988Z,92.20
2019-02-05T14:10:40.861Z,92.20
2019-02-05T14:13:09.124Z,92.20
2019-02-05T14:15:42.358Z,91.80
2019-02-05T14:18:11.221Z,92.00
2019-02-05T14:20:39.610Z,91.80
2019-02-05T14:23:08.222Z,92.00
2019-02-05T14:25:36.529Z,91.70
2019-02-05T14:28:04.761Z,92.00
2019-02-05T14:30:38.874Z,92.30
2019-02-05T14:33:07.232Z,92.80
2019-02-05T14:35:35.524Z,92.70
2019-02-05T14:38:04.641Z,92.50
2019-02-05T14:40:32.891Z,92.80
2019-02-05T14:43:01.139Z,92.70
2019-02-05T14:45:32.237Z,92.70
2019-02-05T14:48:00.852Z,93.20
2019-02-05T14:50:34.793Z,93.00
2019-02-05T14:53:03.448Z,93.00
2019-02-05T14:55:31.685Z,92.90
2019-02-05T14:57:59.935Z,93.00
2019-02-05T15:00:36.987Z,93.30
2019-02-05T15:03:07.963Z,93.10
2019-02-05T15:05:36.564Z,93.00
2019-02-05T15:08:06.168Z,93.00
2019-02-05T15:10:34.435Z,93.00
2019-02-05T15:13:02.742Z,92.90
2019-02-05T15:15:31.821Z,93.10
2019-02-05T15:18:00.053Z,93.20
2019-02-05T15:20:43.093Z,92.90
2019-02-05T15:23:11.615Z,93.20
2019-02-05T15:25:39.904Z,92.80
2019-02-05T15:28:08.522Z,92.90
2019-02-05T15:30:41.530Z,93.10
2019-02-05T15:33:16.701Z,93.30
2019-02-05T15:35:49.757Z,93.10
2019-02-05T15:38:18.089Z,92.70
2019-02-05T15:40:46.904Z,93.10
2019-02-05T15:43:15.139Z,93.20
2019-02-05T15:45:43.465Z,93.30
2019-02-05T15:48:11.716Z,93.60
2019-02-05T15:50:39.953Z,93.20
2019-02-05T15:53:08.458Z,93.20
2019-02-05T15:55:36.954Z,93.50
2019-02-05T15:58:05.200Z,93.60
2019-02-05T16:00:34.708Z,93.70
2019-02-05T16:03:03.246Z,93.70
2019-02-05T16:05:31.651Z,93.50
2019-02-05T16:07:59.900Z,93.50
2019-02-05T16:10:28.144Z,93.40
2019-02-05T16:12:56.830Z,93.40
2019-02-05T16:15:25.101Z,93.50
2019-02-05T16:17:53.373Z,93.50
2019-02-05T16:20:22.030Z,93.40
2019-02-05T16:22:50.529Z,93.20
2019-02-05T16:25:19.326Z,93.50
2019-02-05T16:27:47.555Z,93.60
2019-02-05T16:30:19.657Z,93.50
2019-02-05T16:32:47.901Z,93.60
2019-02-05T16:35:16.168Z,93.50
2019-02-05T16:37:44.481Z,93.80
2019-02-05T16:40:30.729Z,93.70
2019-02-05T16:42:58.957Z,93.70
2019-02-05T16:45:28.718Z,93.70
2019-02-05T16:47:58.065Z,93.60
2019-02-05T16:50:42.045Z,93.50
2019-02-05T16:53:10.556Z,93.80
2019-02-05T16:55:38.787Z,93.50
2019-02-05T16:58:07.192Z,93.50
2019-02-05T17:00:36.657Z,94.00
2019-02-05T17:03:06.015Z,94.10
2019-02-05T17:05:36.278Z,94.40
2019-02-05T17:08:04.517Z,94.40
2019-02-05T17:10:32.756Z,94.70
2019-02-05T17:13:01.114Z,94.90
2019-02-05T17:15:29.650Z,95.10
2019-02-05T17:17:57.914Z,95.10
2019-02-05T17:20:31.491Z,95.20
2019-02-05T17:23:00.660Z,95.40
2019-02-05T17:25:30.084Z,95.20
2019-02-05T17:28:01.270Z,95.20
2019-02-05T17:30:35.115Z,95.30
2019-02-05T17:33:03.419Z,95.30
2019-02-05T17:35:31.729Z,95.40
2019-02-05T17:38:00.343Z,95.40
2019-02-05T17:40:28.606Z,95.50
2019-02-05T17:42:56.900Z,95.50
2019-02-05T17:45:36.171Z,95.40
2019-02-05T17:48:10.345Z,95.50
2019-02-05T17:50:38.673Z,95.60
2019-02-05T17:53:07.079Z,95.90
2019-02-05T17:55:35.307Z,95.80
2019-02-05T17:58:03.683Z,95.60
2019-02-05T18:00:50.809Z,95.80
2019-02-05T18:03:25.440Z,95.80
2019-02-05T18:05:53.768Z,95.90
2019-02-05T18:08:22.134Z,95.80
2019-02-05T18:10:50.427Z,95.90
2019-02-05T18:13:18.819Z,95.80
2019-02-05T18:15:47.865Z,95.80
2019-02-05T18:18:16.696Z,95.90
2019-02-05T18:20:45.136Z,95.80
2019-02-05T18:23:13.452Z,96.20
2019-02-05T18:25:41.878Z,96.10
2019-02-05T18:28:10.129Z,95.50
2019-02-05T18:30:38.711Z,95.10
2019-02-05T18:33:07.391Z,95.40
2019-02-05T18:35:35.698Z,95.30
2019-02-05T18:38:10.611Z,95.40
2019-02-05T18:40:38.971Z,95.30
2019-02-05T18:43:07.538Z,95.10
2019-02-05T18:45:36.094Z,94.90
2019-02-05T18:48:05.016Z,95.00
2019-02-05T18:50:33.447Z,95.20
2019-02-05T18:53:01.995Z,95.40
2019-02-05T18:55:39.162Z,95.20
2019-02-05T18:58:09.613Z,95.10
2019-02-05T19:00:44.220Z,95.30
2019-02-05T19:03:15.506Z,95.30
2019-02-05T19:05:43.331Z,95.20
2019-02-05T19:08:16.621Z,95.50
2019-02-05T19:10:44.680Z,95.60
2019-02-05T19:13:13.125Z,95.70
2019-02-05T19:15:44.120Z,95.70
2019-02-05T19:18:12.501Z,95.70
2019-02-05T19:20:40.733Z,95.70
2019-02-05T19:23:10.165Z,95.80
2019-02-05T19:25:46.432Z,95.90
2019-02-05T19:28:24.002Z,95.70
2019-02-05T19:30:54.130Z,95.70
2019-02-05T19:33:27.335Z,95.70
2019-02-05T19:35:52.538Z,95.70
2019-02-05T19:38:25.904Z,95.70
2019-02-05T19:40:57.492Z,95.80
2019-02-05T19:43:24.256Z,95.80
2019-02-05T19:45:56.953Z,95.80
2019-02-05T19:48:32.618Z,95.80
2019-02-05T19:51:01.828Z,95.70
2019-02-05T19:53:30.123Z,95.70
2019-02-05T19:55:58.770Z,95.80
2019-02-05T19:58:27.320Z,95.70
2019-02-05T20:00:56.152Z,95.50
2019-02-05T20:03:25.899Z,95.60
2019-02-05T20:05:54.570Z,95.60
2019-02-05T20:08:26.671Z,95.70
2019-02-05T20:10:57.767Z,95.60
2019-02-05T20:13:26.275Z,96.00
2019-02-05T20:15:55.074Z,95.70
2019-02-05T20:18:23.362Z,96.00
2019-02-05T20:20:54.096Z,96.10
2019-02-05T20:23:22.425Z,96.40
2019-02-05T20:25:50.678Z,96.20
2019-02-05T20:28:19.821Z,96.10
2019-02-05T20:30:48.093Z,96.20
2019-02-05T20:33:16.978Z,96.10
2019-02-05T20:35:45.879Z,96.30
2019-02-05T20:38:14.114Z,96.30
2019-02-05T20:40:42.403Z,96.20
2019-02-05T20:43:12.846Z,96.40
2019-02-05T20:45:42.151Z,96.30
2019-02-05T20:48:10.399Z,96.30
2019-02-05T20:50:39.418Z,96.50
2019-02-05T20:53:13.914Z,96.40
2019-02-05T20:55:37.680Z,96.40
2019-02-05T20:58:06.329Z,96.40
2019-02-05T21:00:34.982Z,96.50
2019-02-05T21:03:03.301Z,96.50
2019-02-05T21:05:31.700Z,96.50
2019-02-05T21:08:01.225Z,96.60
2019-02-05T21:10:30.743Z,96.70
2019-02-05T21:12:59.099Z,96.80
2019-02-05T21:15:27.436Z,96.70
2019-02-05T21:17:55.764Z,97.00
2019-02-05T21:20:32.200Z,97.00
2019-02-05T21:23:01.895Z,97.10
2019-02-05T21:25:30.162Z,97.10
2019-02-05T21:27:58.755Z,97.10
2019-02-05T21:30:31.127Z,97.10
2019-02-05T21:32:59.407Z,97.10
2019-02-05T21:35:27.659Z,97.20
2019-02-05T21:37:56.615Z,97.20
2019-02-05T21:40:26.063Z,97.40
2019-02-05T21:42:54.391Z,97.20
2019-02-05T21:45:26.913Z,97.20
2019-02-05T21:47:55.219Z,97.20
2019-02-05T21:50:24.205Z,97.10
2019-02-05T21:52:57.570Z,97.30
2019-02-05T21:55:26.783Z,97.10
2019-02-05T21:57:55.106Z,96.90
2019-02-05T22:00:31.605Z,96.90
2019-02-05T22:03:00.094Z,97.00
2019-02-05T22:05:30.546Z,96.90
2019-02-05T22:08:00.998Z,96.90
2019-02-05T22:10:29.374Z,96.90
2019-02-05T22:12:57.799Z,96.90
2019-02-05T22:15:26.586Z,96.90
2019-02-05T22:17:55.017Z,97.10
2019-02-05T22:20:25.956Z,97.00
2019-02-05T22:22:56.146Z,97.00
2019-02-05T22:25:29.979Z,97.10
2019-02-05T22:27:58.440Z,97.00
2019-02-05T22:30:34.000Z,97.00
2019-02-05T22:33:02.279Z,97.20
2019-02-05T22:35:30.619Z,96.70
2019-02-05T22:37:59.079Z,96.80
2019-02-05T22:40:28.121Z,96.70
2019-02-05T22:42:56.511Z,96.90
2019-02-05T22:45:29.929Z,96.90
2019-02-05T22:47:58.218Z,96.80
2019-02-05T22:50:28.838Z,96.90
2019-02-05T22:52:57.239Z,96.80
2019-02-05T22:55:25.678Z,96.90
2019-02-05T22:57:53.993Z,96.90
2019-02-05T23:00:30.226Z,96.80
2019-02-05T23:02:58.902Z,96.70
2019-02-05T23:05:38.421Z,96.60
2019-02-05T23:08:07.814Z,96.40
2019-02-05T23:10:39.408Z,96.40
2019-02-05T23:13:08.040Z,96.40
2019-02-05T23:15:36.898Z,96.20
2019-02-05T23:18:05.348Z,96.10
2019-02-05T23:20:33.638Z,95.90
2019-02-05T23:23:02.139Z,95.90
2019-02-05T23:25:30.679Z,95.60
2019-02-05T23:27:59.217Z,95.70
2019-02-05T23:30:27.482Z,95.70
2019-02-05T23:32:55.725Z,95.60
2019-02-05T23:35:24.264Z,95.40
2019-02-05T23:37:52.686Z,95.40
2019-02-05T23:40:20.986Z,95.40
2019-02-05T23:42:49.217Z,95.20
2019-02-05T23:45:17.635Z,95.10
2019-02-05T23:47:46.968Z,95.10
2019-02-05T23:50:15.495Z,95.00
2019-02-05T23:52:44.534Z,94.80
2019-02-05T23:55:14.030Z,94.90
2019-02-05T23:57:42.354Z,94.80
